Time;durP1;ratioP1;P1;durP2;ratioP2;P2;SDS_P1;SDS_P2;PMS_P1;PMS_P2;Temp;Humidity;BMP_temperature;BMP_pressure;BME280_temperature;BME280_humidity;BME280_pressure;Samples;Min_cycle;Max_cycle;Signal;HPM_P1;HPM_P2
2021/03/11 00:02:12;;;;;;;11.52;5.57;;;;;;;;;;5025683;28;20041;-66
2021/03/11 00:04:39;;;;;;;14.32;7.10;;;;;;;;;;5029172;28;20327;-66
2021/03/11 00:07:07;;;;;;;16.83;8.43;;;;;;;;;;5027339;28;20038;-66
2021/03/11 00:09:33;;;;;;;17.13;8.63;;;;;;;;;;5023889;28;20030;-67
2021/03/11 00:11:59;;;;;;;16.23;7.95;;;;;;;;;;5028291;28;20045;-67
2021/03/11 00:14:26;;;;;;;20.88;8.85;;;;;;;;;;5029153;28;20041;-66
2021/03/11 00:16:52;;;;;;;18.40;8.63;;;;;;;;;;5027146;28;20124;-66
2021/03/11 00:19:19;;;;;;;13.55;7.60;;;;;;;;;;5028999;28;20038;-66
2021/03/11 00:21:45;;;;;;;16.08;8.32;;;;;;;;;;5029935;28;20103;-67
2021/03/11 00:24:11;;;;;;;13.63;8.27;;;;;;;;;;5027942;28;20102;-66
2021/03/11 00:26:37;;;;;;;21.92;8.88;;;;;;;;;;5023723;28;20038;-66
2021/03/11 00:29:04;;;;;;;15.73;8.52;;;;;;;;;;5029488;28;20042;-66
2021/03/11 00:31:30;;;;;;;14.65;7.68;;;;;;;;;;5030367;28;20560;-67
2021/03/11 00:33:56;;;;;;;13.75;7.75;;;;;;;;;;5026441;28;20064;-66
2021/03/11 00:36:23;;;;;;;16.85;9.07;;;;;;;;;;5024652;28;20033;-66
2021/03/11 00:38:49;;;;;;;15.63;8.18;;;;;;;;;;5030422;28;20037;-66
2021/03/11 00:41:15;;;;;;;17.25;9.05;;;;;;;;;;5028304;28;20061;-66
2021/03/11 00:43:42;;;;;;;14.82;8.35;;;;;;;;;;5029439;28;20390;-66
2021/03/11 00:46:08;;;;;;;16.25;8.00;;;;;;;;;;5031423;28;20562;-66
2021/03/11 00:48:34;;;;;;;14.77;7.25;;;;;;;;;;5030431;28;20060;-66
2021/03/11 00:51:01;;;;;;;12.52;6.25;;;;;;;;;;5031813;28;20056;-67
2021/03/11 00:53:28;;;;;;;16.73;8.75;;;;;;;;;;5024806;28;20092;-66
2021/03/11 00:55:54;;;;;;;16.25;8.32;;;;;;;;;;5024127;28;20045;-66
2021/03/11 00:58:21;;;;;;;16.92;8.05;;;;;;;;;;5028395;28;20085;-66
2021/03/11 01:00:47;;;;;;;15.93;8.68;;;;;;;;;;5022914;28;20076;-67
2021/03/11 01:03:25;;;;;;;17.52;7.90;;;;;;;;;;5023551;28;20072;-66
2021/03/11 01:05:56;;;;;;;20.83;9.20;;;;;;;;;;5025051;28;20080;-67
2021/03/11 01:08:30;;;;;;;14.77;6.93;;;;;;;;;;5023154;28;20044;-66
2021/03/11 01:10:56;;;;;;;16.70;8.68;;;;;;;;;;5029070;28;20041;-66
2021/03/11 01:13:22;;;;;;;12.90;6.45;;;;;;;;;;5029812;28;20041;-66
2021/03/11 01:15:48;;;;;;;16.83;7.55;;;;;;;;;;5029778;28;20057;-66
2021/03/11 01:18:14;;;;;;;13.73;6.50;;;;;;;;;;5032922;28;20037;-66
2021/03/11 01:20:41;;;;;;;19.52;8.45;;;;;;;;;;5030895;28;20578;-66
2021/03/11 01:23:07;;;;;;;16.15;7.57;;;;;;;;;;5027063;28;20034;-66
2021/03/11 01:25:33;;;;;;;14.43;7.03;;;;;;;;;;5029421;28;20083;-66
2021/03/11 01:28:00;;;;;;;18.27;8.35;;;;;;;;;;5028263;28;20038;-66
2021/03/11 01:30:27;;;;;;;12.13;4.70;;;;;;;;;;5026695;28;20057;-66
2021/03/11 01:32:53;;;;;;;19.65;9.52;;;;;;;;;;5027838;28;20069;-66
2021/03/11 01:35:19;;;;;;;21.33;9.18;;;;;;;;;;5023330;28;20041;-66
2021/03/11 01:37:45;;;;;;;15.30;7.50;;;;;;;;;;5024675;28;20038;-66
2021/03/11 01:40:12;;;;;;;16.45;9.25;;;;;;;;;;5021094;28;20049;-67
2021/03/11 01:42:38;;;;;;;15.18;7.20;;;;;;;;;;5026461;28;20053;-66
2021/03/11 01:45:05;;;;;;;20.38;6.97;;;;;;;;;;5026205;28;20042;-67
2021/03/11 01:47:31;;;;;;;12.10;4.53;;;;;;;;;;5029101;28;20042;-66
2021/03/11 01:49:58;;;;;;;22.33;8.80;;;;;;;;;;5027807;28;20073;-66
2021/03/11 01:52:24;;;;;;;22.70;8.25;;;;;;;;;;5025642;28;20539;-67
2021/03/11 01:54:51;;;;;;;8.50;5.00;;;;;;;;;;5024180;28;20045;-66
2021/03/11 01:57:17;;;;;;;18.27;8.25;;;;;;;;;;5026498;28;20101;-66
2021/03/11 01:59:44;;;;;;;12.60;6.78;;;;;;;;;;5019489;28;20128;-66
2021/03/11 02:02:11;;;;;;;19.17;8.43;;;;;;;;;;5027558;28;20060;-66
2021/03/11 02:04:37;;;;;;;17.02;8.02;;;;;;;;;;5025494;28;20498;-67
2021/03/11 02:07:04;;;;;;;18.63;7.65;;;;;;;;;;5026458;28;20033;-66
2021/03/11 02:09:30;;;;;;;13.95;5.53;;;;;;;;;;5028866;28;20044;-66
2021/03/11 02:12:02;;;;;;;9.25;4.88;;;;;;;;;;5027165;28;20041;-66
2021/03/11 02:14:33;;;;;;;17.27;7.82;;;;;;;;;;5026335;28;20057;-66
2021/03/11 02:17:01;;;;;;;19.95;8.05;;;;;;;;;;5025373;28;20049;-66
2021/03/11 02:19:46;;;;;;;16.88;8.95;;;;;;;;;;5023030;28;20041;-66
2021/03/11 02:22:28;;;;;;;21.08;9.88;;;;;;;;;;5025820;28;20057;-67
2021/03/11 02:25:08;;;;;;;14.55;7.53;;;;;;;;;;5025387;28;20049;-67
2021/03/11 02:27:53;;;;;;;17.55;7.95;;;;;;;;;;5023581;28;20509;-67
2021/03/11 02:30:19;;;;;;;21.15;10.43;;;;;;;;;;5018742;28;20061;-66
2021/03/11 02:32:50;;;;;;;10.13;5.45;;;;;;;;;;5023087;28;20505;-67
2021/03/11 02:35:17;;;;;;;18.20;7.55;;;;;;;;;;5035172;28;20042;-67
2021/03/11 02:37:48;;;;;;;25.60;10.82;;;;;;;;;;5019850;28;20112;-67
2021/03/11 02:40:17;;;;;;;20.10;7.10;;;;;;;;;;5020445;28;20394;-66
2021/03/11 02:42:43;;;;;;;18.77;10.35;;;;;;;;;;5021252;28;20041;-67
2021/03/11 02:45:11;;;;;;;27.75;10.95;;;;;;;;;;5021040;28;20092;-67
2021/03/11 02:47:38;;;;;;;21.23;10.27;;;;;;;;;;5022634;28;20442;-67
2021/03/11 02:50:05;;;;;;;23.33;11.07;;;;;;;;;;5019329;28;20533;-67
2021/03/11 02:52:32;;;;;;;15.70;7.55;;;;;;;;;;5019354;28;20041;-67
2021/03/11 02:55:18;;;;;;;17.30;8.25;;;;;;;;;;5025108;28;20497;-67
2021/03/11 02:57:45;;;;;;;18.65;9.30;;;;;;;;;;5021805;28;20092;-67
2021/03/11 03:00:12;;;;;;;19.10;7.13;;;;;;;;;;5026880;28;20053;-67
2021/03/11 03:02:42;;;;;;;17.55;7.40;;;;;;;;;;5027082;28;20060;-67
2021/03/11 03:05:09;;;;;;;12.23;6.38;;;;;;;;;;5028343;28;20095;-67
2021/03/11 03:07:36;;;;;;;23.73;10.38;;;;;;;;;;5026264;28;20045;-67
2021/03/11 03:10:04;;;;;;;29.30;11.82;;;;;;;;;;5027459;28;20056;-67
2021/03/11 03:12:30;;;;;;;22.67;9.60;;;;;;;;;;5024062;28;20049;-67
2021/03/11 03:14:57;;;;;;;31.10;8.48;;;;;;;;;;5028200;28;20038;-67
2021/03/11 03:17:23;;;;;;;20.85;9.80;;;;;;;;;;5027652;28;20049;-67
2021/03/11 03:19:50;;;;;;;23.50;10.88;;;;;;;;;;5027421;28;20077;-67
2021/03/11 03:22:17;;;;;;;23.65;7.18;;;;;;;;;;5020351;28;20041;-67
2021/03/11 03:24:44;;;;;;;19.73;7.75;;;;;;;;;;5019058;28;20042;-67
2021/03/11 03:27:11;;;;;;;28.05;11.40;;;;;;;;;;5028559;28;20045;-67
2021/03/11 03:29:37;;;;;;;;;;;;;;;;;;5027064;28;20049;-67
2021/03/11 03:32:04;;;;;;;23.60;10.75;;;;;;;;;;5024205;28;19928;-67
2021/03/11 03:34:30;;;;;;;21.63;9.67;;;;;;;;;;5022964;28;20048;-67
2021/03/11 03:36:58;;;;;;;33.45;15.70;;;;;;;;;;5029715;28;20072;-67
2021/03/11 03:39:24;;;;;;;27.83;11.55;;;;;;;;;;5027773;28;20053;-67
2021/03/11 03:41:52;;;;;;;23.55;9.38;;;;;;;;;;5026801;28;20041;-67
2021/03/11 03:44:20;;;;;;;18.00;7.50;;;;;;;;;;5029596;28;20083;-67
2021/03/11 03:46:47;;;;;;;25.50;10.90;;;;;;;;;;5027637;28;20045;-67
2021/03/11 03:49:14;;;;;;;21.83;9.75;;;;;;;;;;5030514;28;20517;-67
2021/03/11 03:51:48;;;;;;;19.23;9.15;;;;;;;;;;5028586;28;20535;-67
2021/03/11 03:54:14;;;;;;;30.25;14.52;;;;;;;;;;5031737;28;20122;-67
2021/03/11 03:57:10;;;;;;;25.88;11.38;;;;;;;;;;5033795;28;20041;-67
2021/03/11 03:59:38;;;;;;;19.70;9.48;;;;;;;;;;5016394;28;20104;-67
2021/03/11 04:02:04;;;;;;;34.65;14.60;;;;;;;;;;5029699;28;20107;-67
2021/03/11 04:04:36;;;;;;;37.38;15.60;;;;;;;;;;5031976;28;20091;-67
2021/03/11 04:07:03;;;;;;;42.15;17.63;;;;;;;;;;5031495;28;20053;-67
2021/03/11 04:09:29;;;;;;;79.85;14.98;;;;;;;;;;5033436;28;20053;-67
2021/03/11 04:11:56;;;;;;;24.73;9.20;;;;;;;;;;5025782;28;20428;-67
2021/03/11 04:14:23;;;;;;;29.05;13.38;;;;;;;;;;5027597;28;20092;-67
2021/03/11 04:16:51;;;;;;;37.08;17.95;;;;;;;;;;5030546;28;20490;-67
2021/03/11 04:19:18;;;;;;;34.92;14.25;;;;;;;;;;5035781;28;20440;-67
2021/03/11 04:21:47;;;;;;;27.42;12.38;;;;;;;;;;5029547;28;20042;-67
2021/03/11 04:24:13;;;;;;;39.75;16.70;;;;;;;;;;5033566;28;20400;-68
2021/03/11 04:26:40;;;;;;;22.52;9.82;;;;;;;;;;5029354;28;20042;-67
2021/03/11 04:29:06;;;;;;;26.08;8.68;;;;;;;;;;5032782;28;20509;-67
2021/03/11 04:31:33;;;;;;;25.10;10.87;;;;;;;;;;5031180;28;20460;-67
2021/03/11 04:34:00;;;;;;;35.17;17.13;;;;;;;;;;5026742;28;20050;-67
2021/03/11 04:36:27;;;;;;;48.92;16.45;;;;;;;;;;5036083;28;20065;-67
2021/03/11 04:38:54;;;;;;;30.15;14.45;;;;;;;;;;5031773;28;20045;-67
2021/03/11 04:41:24;;;;;;;29.15;12.80;;;;;;;;;;5027437;28;20056;-67
2021/03/11 04:43:50;;;;;;;32.58;13.88;;;;;;;;;;5030743;28;20045;-67
2021/03/11 04:46:21;;;;;;;43.17;13.27;;;;;;;;;;5031912;28;20038;-67
2021/03/11 04:48:48;;;;;;;25.35;10.82;;;;;;;;;;5030262;28;20084;-68
2021/03/11 04:51:16;;;;;;;25.15;12.23;;;;;;;;;;5026926;28;20879;-68
2021/03/11 04:53:43;;;;;;;28.80;11.50;;;;;;;;;;5029886;28;20559;-68
2021/03/11 04:56:13;;;;;;;26.58;11.95;;;;;;;;;;5030318;28;20049;-68
2021/03/11 04:58:40;;;;;;;39.00;16.53;;;;;;;;;;5027418;28;20045;-68
2021/03/11 05:01:13;;;;;;;28.60;13.95;;;;;;;;;;5026441;28;20400;-68
2021/03/11 05:03:44;;;;;;;34.50;16.17;;;;;;;;;;5027792;28;20036;-68
2021/03/11 05:06:10;;;;;;;34.60;14.13;;;;;;;;;;5029677;28;20497;-68
2021/03/11 05:08:37;;;;;;;32.47;14.50;;;;;;;;;;5030440;28;20378;-68
2021/03/11 05:11:04;;;;;;;26.73;10.27;;;;;;;;;;5027500;28;20033;-68
2021/03/11 05:13:30;;;;;;;32.35;13.57;;;;;;;;;;5029576;28;20049;-68
2021/03/11 05:15:57;;;;;;;30.90;15.35;;;;;;;;;;5026462;28;20382;-68
2021/03/11 05:18:24;;;;;;;37.95;18.23;;;;;;;;;;5027847;28;20072;-68
2021/03/11 05:20:51;;;;;;;34.30;15.88;;;;;;;;;;5028078;28;20093;-68
2021/03/11 05:23:17;;;;;;;31.95;13.73;;;;;;;;;;5026035;28;20095;-68
2021/03/11 05:25:43;;;;;;;24.90;11.13;;;;;;;;;;5024928;28;20045;-68
2021/03/11 05:28:10;;;;;;;18.13;8.52;;;;;;;;;;5027751;28;20037;-68
2021/03/11 05:30:36;;;;;;;33.33;15.10;;;;;;;;;;5029151;28;20061;-68
2021/03/11 05:33:02;;;;;;;27.30;12.85;;;;;;;;;;5022857;28;20293;-68
2021/03/11 05:35:29;;;;;;;32.58;12.95;;;;;;;;;;5027411;28;20042;-68
2021/03/11 05:37:56;;;;;;;26.95;12.43;;;;;;;;;;5022775;28;20073;-68
2021/03/11 05:40:23;;;;;;;32.92;16.30;;;;;;;;;;5040163;28;20058;-68
2021/03/11 05:42:51;;;;;;;28.35;12.38;;;;;;;;;;5025136;28;20041;-68
2021/03/11 05:45:18;;;;;;;14.00;7.18;;;;;;;;;;5022308;28;20064;-68
2021/03/11 05:47:45;;;;;;;35.65;17.63;;;;;;;;;;5029437;28;20132;-68
2021/03/11 05:50:12;;;;;;;23.75;11.02;;;;;;;;;;5028697;28;20038;-68
2021/03/11 05:52:38;;;;;;;26.85;12.98;;;;;;;;;;5029982;28;20068;-68
2021/03/11 05:55:06;;;;;;;27.67;14.10;;;;;;;;;;5029431;28;20045;-68
2021/03/11 05:57:43;;;;;;;31.00;13.77;;;;;;;;;;5027723;28;20041;-69
2021/03/11 06:00:13;;;;;;;34.95;17.13;;;;;;;;;;5031186;28;20033;-68
2021/03/11 06:02:42;;;;;;;27.92;15.93;;;;;;;;;;5027174;28;20355;-68
2021/03/11 06:05:08;;;;;;;18.08;9.45;;;;;;;;;;5024484;28;20041;-68
2021/03/11 06:07:35;;;;;;;28.58;14.05;;;;;;;;;;5033303;28;20049;-68
2021/03/11 06:10:03;;;;;;;23.60;11.07;;;;;;;;;;5027773;28;20087;-69
2021/03/11 06:12:30;;;;;;;29.50;16.40;;;;;;;;;;5029871;28;20116;-68
2021/03/11 06:15:17;;;;;;;16.63;7.38;;;;;;;;;;5029318;28;20057;-68
2021/03/11 06:17:44;;;;;;;30.10;15.50;;;;;;;;;;5019753;28;20050;-68
2021/03/11 06:20:12;;;;;;;28.48;14.10;;;;;;;;;;5033734;28;20098;-68
2021/03/11 06:22:38;;;;;;;26.10;14.80;;;;;;;;;;5034896;28;20041;-68
2021/03/11 06:25:06;;;;;;;23.38;12.68;;;;;;;;;;5031336;28;20095;-69
2021/03/11 06:27:33;;;;;;;20.98;8.98;;;;;;;;;;5031387;28;20045;-69
2021/03/11 06:30:00;;;;;;;26.48;14.95;;;;;;;;;;5030357;28;20563;-68
2021/03/11 06:32:27;;;;;;;23.52;11.98;;;;;;;;;;5028932;28;20049;-68
2021/03/11 06:34:54;;;;;;;26.80;11.93;;;;;;;;;;5030887;28;20129;-68
2021/03/11 06:37:36;;;;;;;26.83;13.48;;;;;;;;;;5020477;28;20057;-68
2021/03/11 06:40:12;;;;;;;13.45;6.82;;;;;;;;;;5028095;28;20053;-68
2021/03/11 06:42:39;;;;;;;25.98;12.27;;;;;;;;;;5031496;28;20204;-68
2021/03/11 06:45:26;;;;;;;23.60;11.50;;;;;;;;;;5028465;28;20037;-68
2021/03/11 06:47:53;;;;;;;23.02;12.43;;;;;;;;;;5027633;28;20042;-68
2021/03/11 06:50:30;;;;;;;22.98;11.05;;;;;;;;;;5030482;28;20794;-69
2021/03/11 06:53:00;;;;;;;24.45;13.57;;;;;;;;;;5029426;28;20061;-69
2021/03/11 06:55:27;;;;;;;21.60;12.13;;;;;;;;;;5030014;28;20033;-70
2021/03/11 06:57:54;;;;;;;12.35;6.35;;;;;;;;;;5029576;28;20107;-69
2021/03/11 07:00:23;;;;;;;23.30;12.68;;;;;;;;;;5028666;28;20079;-68
2021/03/11 07:02:50;;;;;;;26.33;12.57;;;;;;;;;;5031093;28;20057;-69
2021/03/11 07:05:16;;;;;;;15.88;8.98;;;;;;;;;;5030512;28;20050;-68
2021/03/11 07:07:42;;;;;;;25.30;12.85;;;;;;;;;;5030869;28;20121;-68
2021/03/11 07:10:25;;;;;;;23.45;13.48;;;;;;;;;;5030216;28;20053;-68
2021/03/11 07:12:52;;;;;;;14.07;7.07;;;;;;;;;;5028748;28;20092;-69
2021/03/11 07:15:19;;;;;;;17.50;10.23;;;;;;;;;;5027014;28;20489;-68
2021/03/11 07:17:45;;;;;;;14.60;7.53;;;;;;;;;;5030258;28;20069;-68
2021/03/11 07:20:13;;;;;;;22.48;12.48;;;;;;;;;;5029810;28;20057;-69
2021/03/11 07:22:40;;;;;;;;;;;;;;;;;;5029345;28;20033;-69
2021/03/11 07:25:27;;;;;;;13.65;7.50;;;;;;;;;;5027515;28;19960;-70
2021/03/11 07:27:53;;;;;;;17.35;9.88;;;;;;;;;;5030001;28;20460;-69
2021/03/11 07:30:22;;;;;;;17.75;10.50;;;;;;;;;;5030084;28;20061;-69
2021/03/11 07:32:48;;;;;;;14.48;8.38;;;;;;;;;;5025840;28;20120;-69
2021/03/11 07:35:20;;;;;;;20.80;12.60;;;;;;;;;;5021815;28;20045;-69
2021/03/11 07:37:49;;;;;;;19.67;10.88;;;;;;;;;;5026625;28;20121;-68
2021/03/11 07:40:16;;;;;;;18.42;9.85;;;;;;;;;;5027617;28;20547;-68
2021/03/11 07:42:43;;;;;;;14.07;8.30;;;;;;;;;;5029566;28;20073;-67
2021/03/11 07:45:10;;;;;;;18.17;10.63;;;;;;;;;;5029407;28;20049;-67
2021/03/11 07:47:37;;;;;;;16.75;9.77;;;;;;;;;;5028321;28;20048;-66
2021/03/11 07:50:04;;;;;;;14.52;8.50;;;;;;;;;;5023935;28;20041;-66
2021/03/11 07:52:31;;;;;;;16.90;9.20;;;;;;;;;;5030295;28;20573;-66
2021/03/11 07:54:58;;;;;;;12.55;7.38;;;;;;;;;;5024778;28;20043;-66
2021/03/11 07:57:24;;;;;;;17.35;9.07;;;;;;;;;;5026524;28;20038;-65
2021/03/11 07:59:51;;;;;;;17.65;9.50;;;;;;;;;;5021334;28;20080;-66
2021/03/11 08:02:19;;;;;;;18.30;9.13;;;;;;;;;;5028148;28;20045;-65
2021/03/11 08:04:46;;;;;;;14.85;8.48;;;;;;;;;;5029619;28;20037;-65
2021/03/11 08:07:17;;;;;;;15.10;9.57;;;;;;;;;;5029046;28;20124;-65
2021/03/11 08:09:43;;;;;;;15.95;8.70;;;;;;;;;;5030411;28;20449;-65
2021/03/11 08:12:30;;;;;;;19.17;7.47;;;;;;;;;;5028428;28;20045;-64
2021/03/11 08:14:57;;;;;;;12.60;7.32;;;;;;;;;;5027536;28;20072;-65
2021/03/11 08:17:42;;;;;;;15.10;8.60;;;;;;;;;;5025096;28;20120;-65
2021/03/11 08:20:28;;;;;;;15.05;7.90;;;;;;;;;;5022596;28;20046;-65
2021/03/11 08:22:57;;;;;;;16.23;9.13;;;;;;;;;;5029350;28;20045;-65
2021/03/11 08:25:42;;;;;;;14.02;7.75;;;;;;;;;;5029304;28;20071;-65
2021/03/11 08:28:08;;;;;;;14.07;6.72;;;;;;;;;;5021588;28;20806;-65
2021/03/11 08:30:42;;;;;;;14.57;8.48;;;;;;;;;;5028321;28;20053;-65
2021/03/11 08:33:09;;;;;;;13.13;7.45;;;;;;;;;;5025394;28;20045;-65
2021/03/11 08:35:36;;;;;;;14.57;8.10;;;;;;;;;;5030277;28;20378;-65
2021/03/11 08:38:20;;;;;;;10.88;6.82;;;;;;;;;;5029153;28;20061;-65
2021/03/11 08:40:55;;;;;;;11.93;7.18;;;;;;;;;;5031520;28;20129;-64
2021/03/11 08:43:37;;;;;;;14.63;8.32;;;;;;;;;;5032944;28;20041;-65
2021/03/11 08:46:03;;;;;;;15.77;9.05;;;;;;;;;;5029931;28;20046;-66
2021/03/11 08:48:40;;;;;;;15.70;8.65;;;;;;;;;;5028130;28;20247;-65
2021/03/11 08:51:11;;;;;;;14.05;8.23;;;;;;;;;;5025320;28;20409;-65
2021/03/11 08:53:47;;;;;;;11.48;7.30;;;;;;;;;;5033363;28;20091;-65
2021/03/11 08:56:17;;;;;;;12.13;7.60;;;;;;;;;;5031438;28;20397;-65
2021/03/11 08:58:54;;;;;;;12.35;7.80;;;;;;;;;;5031840;28;20044;-65
2021/03/11 09:01:46;;;;;;;14.13;7.60;;;;;;;;;;5033168;28;20049;-65
2021/03/11 09:04:17;;;;;;;14.95;8.07;;;;;;;;;;5038540;28;20124;-65
2021/03/11 09:06:54;;;;;;;12.82;8.43;;;;;;;;;;5034659;28;20052;-65
2021/03/11 09:09:38;;;;;;;9.50;6.30;;;;;;;;;;5030059;28;20054;-65
2021/03/11 09:12:12;;;;;;;10.57;6.93;;;;;;;;;;5033692;28;20573;-65
2021/03/11 09:14:39;;;;;;;13.93;6.95;;;;;;;;;;5028867;28;20111;-65
2021/03/11 09:17:05;;;;;;;12.77;5.85;;;;;;;;;;5031385;28;20045;-65
2021/03/11 09:19:39;;;;;;;12.15;7.07;;;;;;;;;;5033873;28;20525;-65
2021/03/11 09:22:31;;;;;;;10.57;6.95;;;;;;;;;;5033784;28;20103;-65
2021/03/11 09:24:58;;;;;;;10.15;6.38;;;;;;;;;;5033372;28;20485;-66
2021/03/11 09:27:28;;;;;;;9.45;6.38;;;;;;;;;;5032204;28;20045;-65
2021/03/11 09:29:58;;;;;;;9.55;7.22;;;;;;;;;;5027054;28;20140;-65
2021/03/11 09:32:29;;;;;;;9.65;6.57;;;;;;;;;;5028449;28;20046;-66
2021/03/11 09:35:22;;;;;;;10.15;5.90;;;;;;;;;;5037836;28;20079;-66
2021/03/11 09:37:53;;;;;;;9.15;6.35;;;;;;;;;;5022960;28;20134;-67
2021/03/11 09:40:33;;;;;;;8.73;5.78;;;;;;;;;;5033239;28;20049;-66
2021/03/11 09:43:08;;;;;;;8.65;6.00;;;;;;;;;;5033772;28;20552;-66
2021/03/11 09:45:37;;;;;;;7.88;5.68;;;;;;;;;;5025363;28;20452;-66
2021/03/11 09:48:09;;;;;;;8.95;5.63;;;;;;;;;;5031440;28;20103;-66
2021/03/11 09:50:37;;;;;;;9.50;6.07;;;;;;;;;;5031222;28;20058;-66
2021/03/11 09:53:04;;;;;;;8.75;5.85;;;;;;;;;;5031425;28;20079;-65
2021/03/11 09:55:30;;;;;;;7.75;5.20;;;;;;;;;;5032818;28;20045;-66
2021/03/11 09:57:57;;;;;;;8.47;5.53;;;;;;;;;;5032724;28;20107;-65
2021/03/11 10:00:38;;;;;;;8.07;5.65;;;;;;;;;;5032067;28;20652;-65
2021/03/11 10:03:12;;;;;;;6.88;5.18;;;;;;;;;;5031441;28;20045;-66
2021/03/11 10:05:38;;;;;;;6.47;4.10;;;;;;;;;;5030215;28;20524;-65
2021/03/11 10:08:04;;;;;;;8.60;4.88;;;;;;;;;;5030874;28;20087;-65
2021/03/11 10:10:32;;;;;;;5.88;3.80;;;;;;;;;;5031743;28;20114;-66
2021/03/11 10:12:58;;;;;;;5.45;3.38;;;;;;;;;;5026608;28;20099;-66
2021/03/11 10:15:24;;;;;;;6.68;4.47;;;;;;;;;;5025068;28;20091;-67
2021/03/11 10:18:06;;;;;;;7.05;4.15;;;;;;;;;;5030632;28;20046;-67
2021/03/11 10:20:33;;;;;;;5.72;3.60;;;;;;;;;;5028845;28;20052;-67
2021/03/11 10:23:16;;;;;;;4.22;3.08;;;;;;;;;;5027069;28;20095;-67
2021/03/11 10:25:43;;;;;;;5.13;3.78;;;;;;;;;;5027663;28;20045;-67
2021/03/11 10:28:12;;;;;;;5.13;3.63;;;;;;;;;;5031739;28;20149;-67
2021/03/11 10:30:40;;;;;;;4.95;3.83;;;;;;;;;;5028711;28;20064;-68
2021/03/11 10:33:07;;;;;;;5.68;3.58;;;;;;;;;;5028199;28;20091;-67
2021/03/11 10:35:39;;;;;;;4.82;3.47;;;;;;;;;;5029324;28;20095;-68
2021/03/11 10:38:20;;;;;;;3.72;3.08;;;;;;;;;;5029277;28;20057;-68
2021/03/11 10:40:47;;;;;;;4.45;3.25;;;;;;;;;;5029083;28;20180;-68
2021/03/11 10:43:23;;;;;;;4.20;3.13;;;;;;;;;;5026993;28;20037;-68
2021/03/11 10:45:50;;;;;;;5.60;2.92;;;;;;;;;;5031354;28;20037;-68
2021/03/11 10:48:17;;;;;;;5.63;2.70;;;;;;;;;;5025357;28;20097;-68
2021/03/11 10:50:49;;;;;;;4.07;2.60;;;;;;;;;;5031382;28;20116;-68
2021/03/11 10:53:17;;;;;;;3.95;2.95;;;;;;;;;;5024585;28;20040;-68
2021/03/11 10:55:44;;;;;;;4.13;3.00;;;;;;;;;;5029562;28;20052;-68
2021/03/11 10:58:24;;;;;;;4.65;2.80;;;;;;;;;;5030579;28;20508;-68
2021/03/11 11:01:04;;;;;;;4.15;3.35;;;;;;;;;;5025538;28;20077;-68
2021/03/11 11:03:30;;;;;;;3.67;2.78;;;;;;;;;;5024736;28;20052;-68
2021/03/11 11:05:57;;;;;;;3.83;2.75;;;;;;;;;;5027494;28;20091;-68
2021/03/11 11:08:23;;;;;;;3.83;2.55;;;;;;;;;;5029494;28;20069;-68
2021/03/11 11:10:49;;;;;;;3.20;2.67;;;;;;;;;;5027334;28;20037;-69
2021/03/11 11:13:15;;;;;;;3.85;2.50;;;;;;;;;;5028952;28;20116;-68
2021/03/11 11:15:41;;;;;;;3.20;2.60;;;;;;;;;;5022068;28;20104;-68
2021/03/11 11:18:07;;;;;;;3.15;2.38;;;;;;;;;;5029163;28;20099;-68
2021/03/11 11:20:36;;;;;;;2.50;1.95;;;;;;;;;;5026972;28;20042;-68
2021/03/11 11:23:03;;;;;;;3.42;2.33;;;;;;;;;;5028704;28;20502;-68
2021/03/11 11:25:29;;;;;;;3.22;2.45;;;;;;;;;;5024936;28;20939;-68
2021/03/11 11:27:56;;;;;;;2.97;2.40;;;;;;;;;;5029354;28;20057;-68
2021/03/11 11:30:23;;;;;;;2.83;2.40;;;;;;;;;;5024915;28;20100;-67
2021/03/11 11:32:50;;;;;;;3.38;2.67;;;;;;;;;;5029879;28;20052;-67
2021/03/11 11:35:16;;;;;;;2.35;2.05;;;;;;;;;;5028643;28;20048;-68
2021/03/11 11:37:43;;;;;;;2.47;2.05;;;;;;;;;;5026988;28;20049;-67
2021/03/11 11:40:11;;;;;;;3.33;2.13;;;;;;;;;;5029902;28;20075;-67
2021/03/11 11:42:37;;;;;;;2.60;1.92;;;;;;;;;;5033496;28;20110;-67
2021/03/11 11:45:05;;;;;;;2.85;1.88;;;;;;;;;;5027827;28;20482;-68
2021/03/11 11:47:31;;;;;;;2.40;1.98;;;;;;;;;;5026174;28;20048;-68
2021/03/11 11:49:58;;;;;;;2.10;1.60;;;;;;;;;;5027083;28;20045;-68
2021/03/11 11:52:24;;;;;;;2.55;1.73;;;;;;;;;;5027978;28;20052;-68
2021/03/11 11:54:50;;;;;;;1.90;1.70;;;;;;;;;;5024311;28;20060;-68
2021/03/11 11:57:17;;;;;;;1.85;1.35;;;;;;;;;;5030118;28;20038;-68
2021/03/11 11:59:43;;;;;;;2.20;1.70;;;;;;;;;;5025933;28;20045;-68
2021/03/11 12:02:13;;;;;;;1.50;1.40;;;;;;;;;;5030051;28;20103;-68
2021/03/11 12:04:40;;;;;;;1.25;1.15;;;;;;;;;;5028477;28;20045;-68
2021/03/11 12:07:06;;;;;;;1.75;1.38;;;;;;;;;;5028226;28;20670;-68
2021/03/11 12:09:33;;;;;;;1.67;1.50;;;;;;;;;;5030399;28;20056;-68
2021/03/11 12:12:01;;;;;;;1.65;1.50;;;;;;;;;;5032494;28;20095;-68
2021/03/11 12:14:28;;;;;;;1.70;1.50;;;;;;;;;;5034204;28;20048;-67
2021/03/11 12:16:53;;;;;;;2.00;1.70;;;;;;;;;;5031210;28;20370;-68
2021/03/11 12:19:20;;;;;;;2.13;1.33;;;;;;;;;;5034309;28;20049;-67
2021/03/11 12:21:46;;;;;;;2.03;1.60;;;;;;;;;;5033746;28;20473;-67
2021/03/11 12:24:13;;;;;;;2.03;1.50;;;;;;;;;;5026884;28;20458;-67
2021/03/11 12:26:39;;;;;;;1.38;1.20;;;;;;;;;;5027914;28;20408;-67
2021/03/11 12:29:05;;;;;;;1.30;1.17;;;;;;;;;;5032518;28;20764;-67
2021/03/11 12:31:31;;;;;;;1.63;1.15;;;;;;;;;;5032043;28;20057;-68
2021/03/11 12:33:58;;;;;;;0.80;0.80;;;;;;;;;;5027696;28;20401;-67
2021/03/11 12:36:25;;;;;;;2.15;1.40;;;;;;;;;;5032316;28;20037;-68
2021/03/11 12:38:53;;;;;;;1.27;1.00;;;;;;;;;;5027525;28;20611;-68
2021/03/11 12:41:20;;;;;;;1.40;1.30;;;;;;;;;;5029455;28;20046;-68
2021/03/11 12:43:47;;;;;;;2.97;1.23;;;;;;;;;;5027112;28;20037;-67
2021/03/11 12:46:13;;;;;;;1.15;0.80;;;;;;;;;;5030795;28;20045;-67
2021/03/11 12:48:41;;;;;;;;;;;;;;;;;;5033799;28;20497;-67
2021/03/11 12:51:07;;;;;;;1.38;1.27;;;;;;;;;;5033434;28;20007;-68
2021/03/11 12:53:33;;;;;;;0.90;0.90;;;;;;;;;;5032765;28;20048;-68
2021/03/11 12:56:00;;;;;;;0.80;0.80;;;;;;;;;;5027535;28;20132;-68
2021/03/11 12:58:26;;;;;;;1.17;0.90;;;;;;;;;;5033121;28;20144;-67
2021/03/11 13:00:52;;;;;;;0.80;0.80;;;;;;;;;;5032250;28;20304;-68
2021/03/11 13:03:19;;;;;;;0.70;0.70;;;;;;;;;;5029836;28;20048;-67
2021/03/11 13:05:46;;;;;;;0.60;0.60;;;;;;;;;;5030747;28;20033;-68
2021/03/11 13:08:12;;;;;;;0.77;0.77;;;;;;;;;;5032593;28;20045;-67
2021/03/11 13:10:39;;;;;;;0.70;0.70;;;;;;;;;;5031466;28;20046;-68
2021/03/11 13:13:06;;;;;;;0.68;0.68;;;;;;;;;;5031282;28;20804;-68
2021/03/11 13:15:32;;;;;;;0.68;0.68;;;;;;;;;;5025638;28;20068;-69
2021/03/11 13:17:58;;;;;;;0.45;0.45;;;;;;;;;;5031339;28;20148;-68
2021/03/11 13:20:25;;;;;;;1.02;0.82;;;;;;;;;;5032147;28;20045;-68
2021/03/11 13:22:52;;;;;;;1.27;0.70;;;;;;;;;;5024029;28;20053;-68
2021/03/11 13:25:19;;;;;;;2.60;0.70;;;;;;;;;;5026715;28;20037;-68
2021/03/11 13:27:45;;;;;;;0.40;0.40;;;;;;;;;;5031567;28;20053;-68
2021/03/11 13:30:12;;;;;;;0.80;0.80;;;;;;;;;;5030974;28;20445;-67
2021/03/11 13:32:38;;;;;;;0.73;0.68;;;;;;;;;;5028353;28;20068;-68
2021/03/11 13:35:06;;;;;;;;;;;;;;;;;;5045454;28;20493;-68
2021/03/11 13:37:32;;;;;;;0.77;0.70;;;;;;;;;;5025804;28;20434;-68
2021/03/11 13:39:58;;;;;;;2.05;1.00;;;;;;;;;;5032195;28;20049;-68
2021/03/11 13:42:27;;;;;;;0.80;0.77;;;;;;;;;;5027736;28;20067;-67
2021/03/11 13:44:56;;;;;;;1.27;0.90;;;;;;;;;;5029223;28;20096;-67
2021/03/11 13:47:22;;;;;;;1.58;1.10;;;;;;;;;;5032230;28;20521;-68
2021/03/11 13:49:49;;;;;;;1.40;1.10;;;;;;;;;;5031144;28;20037;-68
2021/03/11 13:52:15;;;;;;;1.60;1.17;;;;;;;;;;5031002;28;20076;-68
2021/03/11 13:54:41;;;;;;;1.67;1.38;;;;;;;;;;5031462;28;20076;-67
2021/03/11 13:57:08;;;;;;;2.67;1.58;;;;;;;;;;5029594;28;20179;-68
2021/03/11 13:59:34;;;;;;;2.25;1.63;;;;;;;;;;5030413;28;20092;-67
2021/03/11 14:02:01;;;;;;;2.42;1.80;;;;;;;;;;5031739;28;20045;-68
2021/03/11 14:04:27;;;;;;;2.40;1.70;;;;;;;;;;5029455;28;20054;-68
2021/03/11 14:07:04;;;;;;;2.08;1.80;;;;;;;;;;5025580;28;20497;-67
2021/03/11 14:09:30;;;;;;;2.33;1.80;;;;;;;;;;5029888;28;20069;-67
2021/03/11 14:11:56;;;;;;;2.83;1.98;;;;;;;;;;5028180;28;20437;-67
2021/03/11 14:14:22;;;;;;;2.70;1.90;;;;;;;;;;5024626;28;20099;-68
2021/03/11 14:16:50;;;;;;;2.10;1.67;;;;;;;;;;5027826;28;20647;-67
2021/03/11 14:19:16;;;;;;;2.63;1.90;;;;;;;;;;5031013;28;20076;-68
2021/03/11 14:21:46;;;;;;;6.93;1.77;;;;;;;;;;5020985;28;20057;-68
2021/03/11 14:24:14;;;;;;;3.23;1.80;;;;;;;;;;5031427;28;20582;-68
2021/03/11 14:26:40;;;;;;;2.90;2.08;;;;;;;;;;5031670;28;20115;-67
2021/03/11 14:29:06;;;;;;;2.60;1.85;;;;;;;;;;5023191;28;20050;-67
2021/03/11 14:31:32;;;;;;;3.22;2.20;;;;;;;;;;5026055;28;20062;-67
2021/03/11 14:34:14;;;;;;;3.38;2.17;;;;;;;;;;5029811;28;20037;-67
2021/03/11 14:36:40;;;;;;;2.30;1.80;;;;;;;;;;5027391;28;20057;-67
2021/03/11 14:39:07;;;;;;;3.10;2.10;;;;;;;;;;5025823;28;20048;-67
2021/03/11 14:41:34;;;;;;;5.85;2.10;;;;;;;;;;5029935;28;20054;-68
2021/03/11 14:44:00;;;;;;;;;;;;;;;;;;5031063;28;20485;-67